sensor_id;sensor_type;location;lat;lon;timestamp;temperature;humidity
12811;DHT22;6470;47.654;7.896;2024-03-06T00:02:10;1.70;99.90
12811;DHT22;6470;47.654;7.896;2024-03-06T00:04:36;5.30;99.90
12811;DHT22;6470;47.654;7.896;2024-03-06T00:07:03;5.00;99.90
12811;DHT22;6470;47.654;7.896;2024-03-06T00:11:57;5.60;99.90
12811;DHT22;6470;47.654;7.896;2024-03-06T00:14:23;2.10;99.90
12811;DHT22;6470;47.654;7.896;2024-03-06T00:19:17;4.90;99.90
12811;DHT22;6470;47.654;7.896;2024-03-06T00:21:42;5.00;99.90
12811;DHT22;6470;47.654;7.896;2024-03-06T00:24:08;2.10;99.90
12811;DHT22;6470;47.654;7.896;2024-03-06T00:26:34;4.90;99.90
12811;DHT22;6470;47.654;7.896;2024-03-06T00:33:52;4.80;99.90
12811;DHT22;6470;47.654;7.896;2024-03-06T00:38:43;4.10;99.90
12811;DHT22;6470;47.654;7.896;2024-03-06T00:43:35;4.50;99.90
12811;DHT22;6470;47.654;7.896;2024-03-06T00:46:01;4.60;99.90
12811;DHT22;6470;47.654;7.896;2024-03-06T00:48:27;4.10;99.90
12811;DHT22;6470;47.654;7.896;2024-03-06T00:55:44;1.50;99.90
12811;DHT22;6470;47.654;7.896;2024-03-06T01:00:36;1.50;99.90
12811;DHT22;6470;47.654;7.896;2024-03-06T01:07:54;4.50;99.90
12811;DHT22;6470;47.654;7.896;2024-03-06T01:10:22;4.50;99.90
12811;DHT22;6470;47.654;7.896;2024-03-06T01:15:14;4.70;99.90
12811;DHT22;6470;47.654;7.896;2024-03-06T01:20:06;4.30;99.90
12811;DHT22;6470;47.654;7.896;2024-03-06T01:22:35;4.20;99.90
12811;DHT22;6470;47.654;7.896;2024-03-06T01:25:01;4.40;99.90
12811;DHT22;6470;47.654;7.896;2024-03-06T01:29:53;4.30;99.90
12811;DHT22;6470;47.654;7.896;2024-03-06T01:34:45;4.40;99.90
12811;DHT22;6470;47.654;7.896;2024-03-06T01:39:37;4.60;99.90
12811;DHT22;6470;47.654;7.896;2024-03-06T01:42:03;3.90;99.90
12811;DHT22;6470;47.654;7.896;2024-03-06T01:49:21;4.10;99.90
12811;DHT22;6470;47.654;7.896;2024-03-06T01:51:53;4.70;99.90
12811;DHT22;6470;47.654;7.896;2024-03-06T01:54:20;3.80;99.90
12811;DHT22;6470;47.654;7.896;2024-03-06T01:56:47;4.30;99.90
12811;DHT22;6470;47.654;7.896;2024-03-06T01:59:19;4.20;99.90
12811;DHT22;6470;47.654;7.896;2024-03-06T02:06:39;4.30;99.90
12811;DHT22;6470;47.654;7.896;2024-03-06T02:09:05;4.50;99.90
12811;DHT22;6470;47.654;7.896;2024-03-06T02:16:24;3.30;99.90
12811;DHT22;6470;47.654;7.896;2024-03-06T02:18:55;3.70;99.90
12811;DHT22;6470;47.654;7.896;2024-03-06T02:26:14;3.10;99.90
12811;DHT22;6470;47.654;7.896;2024-03-06T02:28:49;4.10;99.90
12811;DHT22;6470;47.654;7.896;2024-03-06T02:31:18;3.80;99.90
12811;DHT22;6470;47.654;7.896;2024-03-06T02:33:46;4.30;99.90
12811;DHT22;6470;47.654;7.896;2024-03-06T02:36:13;4.40;99.90
12811;DHT22;6470;47.654;7.896;2024-03-06T02:38:38;4.20;99.90
12811;DHT22;6470;47.654;7.896;2024-03-06T02:43:32;4.40;99.90
12811;DHT22;6470;47.654;7.896;2024-03-06T02:45:58;4.70;99.90
12811;DHT22;6470;47.654;7.896;2024-03-06T02:48:24;4.80;99.90
12811;DHT22;6470;47.654;7.896;2024-03-06T02:53:16;4.20;99.90
12811;DHT22;6470;47.654;7.896;2024-03-06T02:55:42;4.50;99.90
12811;DHT22;6470;47.654;7.896;2024-03-06T02:58:07;3.80;99.90
12811;DHT22;6470;47.654;7.896;2024-03-06T03:00:33;4.30;99.90
12811;DHT22;6470;47.654;7.896;2024-03-06T03:02:59;3.50;99.90
12811;DHT22;6470;47.654;7.896;2024-03-06T03:05:25;3.60;99.90
12811;DHT22;6470;47.654;7.896;2024-03-06T03:07:51;4.20;99.90
12811;DHT22;6470;47.654;7.896;2024-03-06T03:10:17;4.60;99.90
12811;DHT22;6470;47.654;7.896;2024-03-06T03:12:45;4.50;99.90
12811;DHT22;6470;47.654;7.896;2024-03-06T03:15:11;4.40;99.90
12811;DHT22;6470;47.654;7.896;2024-03-06T03:17:36;4.50;99.90
12811;DHT22;6470;47.654;7.896;2024-03-06T03:20:03;4.50;99.90
12811;DHT22;6470;47.654;7.896;2024-03-06T03:22:41;4.60;99.90
12811;DHT22;6470;47.654;7.896;2024-03-06T03:25:11;4.70;99.90
12811;DHT22;6470;47.654;7.896;2024-03-06T03:27:38;4.50;99.90
12811;DHT22;6470;47.654;7.896;2024-03-06T03:30:07;4.40;99.90
12811;DHT22;6470;47.654;7.896;2024-03-06T03:32:34;4.80;99.90
12811;DHT22;6470;47.654;7.896;2024-03-06T03:34:59;4.50;99.90
12811;DHT22;6470;47.654;7.896;2024-03-06T03:37:25;3.90;99.90
12811;DHT22;6470;47.654;7.896;2024-03-06T03:39:51;4.10;99.90
12811;DHT22;6470;47.654;7.896;2024-03-06T03:42:16;4.60;99.90
12811;DHT22;6470;47.654;7.896;2024-03-06T03:44:42;5.20;99.90
12811;DHT22;6470;47.654;7.896;2024-03-06T03:47:08;5.00;99.90
12811;DHT22;6470;47.654;7.896;2024-03-06T03:49:34;4.90;99.90
12811;DHT22;6470;47.654;7.896;2024-03-06T03:54:26;4.90;99.90
12811;DHT22;6470;47.654;7.896;2024-03-06T04:01:47;1.00;99.90
12811;DHT22;6470;47.654;7.896;2024-03-06T04:04:13;5.10;99.90
12811;DHT22;6470;47.654;7.896;2024-03-06T04:06:39;4.30;99.90
12811;DHT22;6470;47.654;7.896;2024-03-06T04:09:05;4.60;99.90
12811;DHT22;6470;47.654;7.896;2024-03-06T04:11:31;4.50;99.90
12811;DHT22;6470;47.654;7.896;2024-03-06T04:18:51;4.00;99.90
12811;DHT22;6470;47.654;7.896;2024-03-06T04:21:17;4.20;99.90
12811;DHT22;6470;47.654;7.896;2024-03-06T04:23:43;4.30;99.90
12811;DHT22;6470;47.654;7.896;2024-03-06T04:26:09;4.30;99.90
12811;DHT22;6470;47.654;7.896;2024-03-06T04:28:35;4.70;99.90
12811;DHT22;6470;47.654;7.896;2024-03-06T04:31:01;4.60;99.90
12811;DHT22;6470;47.654;7.896;2024-03-06T04:33:27;1.10;99.90
12811;DHT22;6470;47.654;7.896;2024-03-06T04:38:19;5.00;99.90
12811;DHT22;6470;47.654;7.896;2024-03-06T04:40:44;1.40;99.90
12811;DHT22;6470;47.654;7.896;2024-03-06T04:43:10;1.60;99.90
12811;DHT22;6470;47.654;7.896;2024-03-06T04:45:36;1.90;99.90
12811;DHT22;6470;47.654;7.896;2024-03-06T04:48:02;4.90;99.90
12811;DHT22;6470;47.654;7.896;2024-03-06T04:50:28;4.70;99.90
12811;DHT22;6470;47.654;7.896;2024-03-06T04:52:54;4.70;99.90
12811;DHT22;6470;47.654;7.896;2024-03-06T04:57:48;4.80;99.90
12811;DHT22;6470;47.654;7.896;2024-03-06T05:00:15;4.20;99.90
12811;DHT22;6470;47.654;7.896;2024-03-06T05:02:41;4.60;99.90
12811;DHT22;6470;47.654;7.896;2024-03-06T05:05:07;3.90;99.90
12811;DHT22;6470;47.654;7.896;2024-03-06T05:07:36;1.80;99.90
12811;DHT22;6470;47.654;7.896;2024-03-06T05:12:28;4.80;99.90
12811;DHT22;6470;47.654;7.896;2024-03-06T05:14:55;4.80;99.90
12811;DHT22;6470;47.654;7.896;2024-03-06T05:17:21;4.70;99.90
12811;DHT22;6470;47.654;7.896;2024-03-06T05:19:47;5.10;99.90
12811;DHT22;6470;47.654;7.896;2024-03-06T05:24:41;1.60;99.90
12811;DHT22;6470;47.654;7.896;2024-03-06T05:29:35;4.60;99.90
12811;DHT22;6470;47.654;7.896;2024-03-06T05:32:02;4.90;99.90
12811;DHT22;6470;47.654;7.896;2024-03-06T05:34:29;2.20;99.90
12811;DHT22;6470;47.654;7.896;2024-03-06T05:36:55;2.10;99.90
12811;DHT22;6470;47.654;7.896;2024-03-06T05:39:21;1.90;99.90
12811;DHT22;6470;47.654;7.896;2024-03-06T05:41:46;4.50;99.90
12811;DHT22;6470;47.654;7.896;2024-03-06T05:46:38;5.10;99.90
12811;DHT22;6470;47.654;7.896;2024-03-06T05:49:04;5.20;99.90
12811;DHT22;6470;47.654;7.896;2024-03-06T05:51:30;5.00;99.90
12811;DHT22;6470;47.654;7.896;2024-03-06T05:53:56;2.20;99.90
12811;DHT22;6470;47.654;7.896;2024-03-06T05:58:47;4.90;99.90
12811;DHT22;6470;47.654;7.896;2024-03-06T06:01:17;4.00;99.90
12811;DHT22;6470;47.654;7.896;2024-03-06T06:03:47;4.80;99.90
12811;DHT22;6470;47.654;7.896;2024-03-06T06:06:17;4.30;99.90
12811;DHT22;6470;47.654;7.896;2024-03-06T06:08:44;4.70;99.90
12811;DHT22;6470;47.654;7.896;2024-03-06T06:11:11;2.20;99.90
12811;DHT22;6470;47.654;7.896;2024-03-06T06:13:37;4.70;99.90
12811;DHT22;6470;47.654;7.896;2024-03-06T06:16:05;5.10;99.90
12811;DHT22;6470;47.654;7.896;2024-03-06T06:18:30;5.00;99.90
12811;DHT22;6470;47.654;7.896;2024-03-06T06:20:57;5.00;99.90
12811;DHT22;6470;47.654;7.896;2024-03-06T06:23:23;5.20;99.90
12811;DHT22;6470;47.654;7.896;2024-03-06T06:25:49;5.00;99.90
12811;DHT22;6470;47.654;7.896;2024-03-06T06:28:15;4.80;99.90
12811;DHT22;6470;47.654;7.896;2024-03-06T06:35:34;1.70;99.90
12811;DHT22;6470;47.654;7.896;2024-03-06T06:38:02;1.70;99.90
12811;DHT22;6470;47.654;7.896;2024-03-06T06:40:30;4.80;99.90
12811;DHT22;6470;47.654;7.896;2024-03-06T06:42:56;2.30;99.90
12811;DHT22;6470;47.654;7.896;2024-03-06T06:45:22;4.70;99.90
12811;DHT22;6470;47.654;7.896;2024-03-06T06:47:48;5.20;99.90
12811;DHT22;6470;47.654;7.896;2024-03-06T06:50:15;4.70;99.90
12811;DHT22;6470;47.654;7.896;2024-03-06T06:52:41;1.60;99.90
12811;DHT22;6470;47.654;7.896;2024-03-06T06:55:07;5.00;99.90
12811;DHT22;6470;47.654;7.896;2024-03-06T06:57:37;5.00;99.90
12811;DHT22;6470;47.654;7.896;2024-03-06T07:00:04;4.90;99.90
12811;DHT22;6470;47.654;7.896;2024-03-06T07:02:42;5.30;99.90
12811;DHT22;6470;47.654;7.896;2024-03-06T07:05:09;5.40;99.90
12811;DHT22;6470;47.654;7.896;2024-03-06T07:10:03;5.10;99.90
12811;DHT22;6470;47.654;7.896;2024-03-06T07:14:55;5.10;99.90
12811;DHT22;6470;47.654;7.896;2024-03-06T07:17:21;1.50;99.90
12811;DHT22;6470;47.654;7.896;2024-03-06T07:19:47;4.90;99.90
12811;DHT22;6470;47.654;7.896;2024-03-06T07:22:12;5.00;99.90
12811;DHT22;6470;47.654;7.896;2024-03-06T07:24:38;4.70;99.90
12811;DHT22;6470;47.654;7.896;2024-03-06T07:27:04;4.40;99.90
12811;DHT22;6470;47.654;7.896;2024-03-06T07:29:30;3.80;99.90
12811;DHT22;6470;47.654;7.896;2024-03-06T07:31:56;0.70;99.90
12811;DHT22;6470;47.654;7.896;2024-03-06T07:34:22;5.20;99.90
12811;DHT22;6470;47.654;7.896;2024-03-06T07:36:48;4.80;99.90
12811;DHT22;6470;47.654;7.896;2024-03-06T07:39:19;4.40;99.90
12811;DHT22;6470;47.654;7.896;2024-03-06T07:41:45;3.90;99.90
12811;DHT22;6470;47.654;7.896;2024-03-06T07:44:10;4.10;99.90
12811;DHT22;6470;47.654;7.896;2024-03-06T07:46:36;4.50;99.90
12811;DHT22;6470;47.654;7.896;2024-03-06T07:49:02;4.80;99.90
12811;DHT22;6470;47.654;7.896;2024-03-06T07:51:29;4.80;99.90
12811;DHT22;6470;47.654;7.896;2024-03-06T07:53:58;4.30;99.90
12811;DHT22;6470;47.654;7.896;2024-03-06T07:56:27;4.50;99.90
12811;DHT22;6470;47.654;7.896;2024-03-06T07:58:54;4.30;99.90
12811;DHT22;6470;47.654;7.896;2024-03-06T08:03:46;1.30;99.90
12811;DHT22;6470;47.654;7.896;2024-03-06T08:06:21;4.80;99.90
12811;DHT22;6470;47.654;7.896;2024-03-06T08:08:47;4.80;99.90
12811;DHT22;6470;47.654;7.896;2024-03-06T08:11:15;4.30;99.90
12811;DHT22;6470;47.654;7.896;2024-03-06T08:13:41;4.90;99.90
12811;DHT22;6470;47.654;7.896;2024-03-06T08:16:07;4.40;99.90
12811;DHT22;6470;47.654;7.896;2024-03-06T08:18:34;4.60;99.90
12811;DHT22;6470;47.654;7.896;2024-03-06T08:21:01;4.70;99.90
12811;DHT22;6470;47.654;7.896;2024-03-06T08:23:27;4.30;99.90
12811;DHT22;6470;47.654;7.896;2024-03-06T08:25:52;4.30;99.90
12811;DHT22;6470;47.654;7.896;2024-03-06T08:28:18;4.90;99.90
12811;DHT22;6470;47.654;7.896;2024-03-06T08:30:44;5.30;99.90
12811;DHT22;6470;47.654;7.896;2024-03-06T08:33:10;4.90;99.90
12811;DHT22;6470;47.654;7.896;2024-03-06T08:35:36;3.60;99.90
12811;DHT22;6470;47.654;7.896;2024-03-06T08:38:02;4.40;99.90
12811;DHT22;6470;47.654;7.896;2024-03-06T08:40:29;3.70;99.90
12811;DHT22;6470;47.654;7.896;2024-03-06T08:42:55;4.40;99.90
12811;DHT22;6470;47.654;7.896;2024-03-06T08:47:49;4.70;99.90
12811;DHT22;6470;47.654;7.896;2024-03-06T08:50:15;4.90;99.90
12811;DHT22;6470;47.654;7.896;2024-03-06T08:52:41;4.20;99.90
12811;DHT22;6470;47.654;7.896;2024-03-06T08:55:07;4.40;99.90
12811;DHT22;6470;47.654;7.896;2024-03-06T08:57:34;4.00;99.90
12811;DHT22;6470;47.654;7.896;2024-03-06T09:00:00;4.70;99.90
12811;DHT22;6470;47.654;7.896;2024-03-06T09:02:26;5.10;99.90
12811;DHT22;6470;47.654;7.896;2024-03-06T09:04:52;5.10;99.90
12811;DHT22;6470;47.654;7.896;2024-03-06T09:07:18;4.80;99.90
12811;DHT22;6470;47.654;7.896;2024-03-06T09:09:44;4.80;99.90
12811;DHT22;6470;47.654;7.896;2024-03-06T09:12:10;5.00;99.90
12811;DHT22;6470;47.654;7.896;2024-03-06T09:14:37;4.80;99.90
12811;DHT22;6470;47.654;7.896;2024-03-06T09:17:03;5.00;99.90
12811;DHT22;6470;47.654;7.896;2024-03-06T09:19:29;5.40;99.90
12811;DHT22;6470;47.654;7.896;2024-03-06T09:21:55;4.90;99.90
12811;DHT22;6470;47.654;7.896;2024-03-06T09:24:22;4.00;99.90
12811;DHT22;6470;47.654;7.896;2024-03-06T09:26:52;4.20;99.90
12811;DHT22;6470;47.654;7.896;2024-03-06T09:31:44;5.00;99.90
12811;DHT22;6470;47.654;7.896;2024-03-06T09:36:41;5.60;99.90
12811;DHT22;6470;47.654;7.896;2024-03-06T09:39:11;5.20;99.90
12811;DHT22;6470;47.654;7.896;2024-03-06T09:41:37;5.50;99.90
12811;DHT22;6470;47.654;7.896;2024-03-06T09:44:04;6.50;99.90
12811;DHT22;6470;47.654;7.896;2024-03-06T09:46:30;5.90;99.90
12811;DHT22;6470;47.654;7.896;2024-03-06T09:48:56;5.20;99.90
12811;DHT22;6470;47.654;7.896;2024-03-06T09:51:22;5.90;99.90
12811;DHT22;6470;47.654;7.896;2024-03-06T09:53:48;5.40;99.90
12811;DHT22;6470;47.654;7.896;2024-03-06T09:56:17;5.40;99.90
12811;DHT22;6470;47.654;7.896;2024-03-06T09:58:45;5.80;99.90
12811;DHT22;6470;47.654;7.896;2024-03-06T10:01:12;6.70;99.90
12811;DHT22;6470;47.654;7.896;2024-03-06T10:06:07;6.80;99.90
12811;DHT22;6470;47.654;7.896;2024-03-06T10:11:00;6.60;99.90
12811;DHT22;6470;47.654;7.896;2024-03-06T10:13:26;6.60;99.90
12811;DHT22;6470;47.654;7.896;2024-03-06T10:16:01;6.90;99.90
12811;DHT22;6470;47.654;7.896;2024-03-06T10:18:28;6.20;99.90
12811;DHT22;6470;47.654;7.896;2024-03-06T10:20:55;6.60;99.90
12811;DHT22;6470;47.654;7.896;2024-03-06T10:23:21;7.00;99.90
12811;DHT22;6470;47.654;7.896;2024-03-06T10:25:48;6.90;99.90
12811;DHT22;6470;47.654;7.896;2024-03-06T10:28:19;4.30;99.90
12811;DHT22;6470;47.654;7.896;2024-03-06T10:33:12;7.00;99.90
12811;DHT22;6470;47.654;7.896;2024-03-06T10:35:41;4.00;99.90
12811;DHT22;6470;47.654;7.896;2024-03-06T10:38:08;7.30;99.90
12811;DHT22;6470;47.654;7.896;2024-03-06T10:40:35;7.40;99.90
12811;DHT22;6470;47.654;7.896;2024-03-06T10:43:03;7.30;99.90
12811;DHT22;6470;47.654;7.896;2024-03-06T10:45:49;7.40;99.90
12811;DHT22;6470;47.654;7.896;2024-03-06T10:48:19;7.30;99.90
12811;DHT22;6470;47.654;7.896;2024-03-06T10:50:46;3.80;99.90
12811;DHT22;6470;47.654;7.896;2024-03-06T10:53:16;7.50;99.90
12811;DHT22;6470;47.654;7.896;2024-03-06T10:55:45;7.20;99.90
12811;DHT22;6470;47.654;7.896;2024-03-06T10:58:12;6.70;99.90
12811;DHT22;6470;47.654;7.896;2024-03-06T11:00:46;7.40;99.90
12811;DHT22;6470;47.654;7.896;2024-03-06T11:05:43;7.30;99.90
12811;DHT22;6470;47.654;7.896;2024-03-06T11:08:13;6.90;99.90
12811;DHT22;6470;47.654;7.896;2024-03-06T11:10:40;7.20;99.90
12811;DHT22;6470;47.654;7.896;2024-03-06T11:13:22;3.90;99.90
12811;DHT22;6470;47.654;7.896;2024-03-06T11:15:50;6.80;99.90
12811;DHT22;6470;47.654;7.896;2024-03-06T11:23:30;7.30;99.90
12811;DHT22;6470;47.654;7.896;2024-03-06T11:26:00;4.30;99.90
12811;DHT22;6470;47.654;7.896;2024-03-06T11:28:27;7.80;99.90
12811;DHT22;6470;47.654;7.896;2024-03-06T11:31:05;8.00;99.90
12811;DHT22;6470;47.654;7.896;2024-03-06T11:33:36;8.00;99.90
12811;DHT22;6470;47.654;7.896;2024-03-06T11:38:56;8.90;99.90
12811;DHT22;6470;47.654;7.896;2024-03-06T11:41:24;8.60;99.90
12811;DHT22;6470;47.654;7.896;2024-03-06T11:43:51;8.70;99.90
12811;DHT22;6470;47.654;7.896;2024-03-06T11:46:19;8.60;99.90
12811;DHT22;6470;47.654;7.896;2024-03-06T11:48:56;8.30;99.90
12811;DHT22;6470;47.654;7.896;2024-03-06T11:51:24;8.40;99.90
12811;DHT22;6470;47.654;7.896;2024-03-06T11:53:52;8.70;99.90
12811;DHT22;6470;47.654;7.896;2024-03-06T11:56:19;8.30;99.90
12811;DHT22;6470;47.654;7.896;2024-03-06T11:58:46;7.80;99.90
12811;DHT22;6470;47.654;7.896;2024-03-06T12:01:14;8.10;99.90
12811;DHT22;6470;47.654;7.896;2024-03-06T12:03:41;7.80;99.90
12811;DHT22;6470;47.654;7.896;2024-03-06T12:06:09;8.00;99.90
12811;DHT22;6470;47.654;7.896;2024-03-06T12:08:35;7.80;99.90
12811;DHT22;6470;47.654;7.896;2024-03-06T12:11:04;7.60;99.90
12811;DHT22;6470;47.654;7.896;2024-03-06T12:13:31;7.60;99.90
12811;DHT22;6470;47.654;7.896;2024-03-06T12:15:56;7.70;99.90
12811;DHT22;6470;47.654;7.896;2024-03-06T12:18:24;4.60;99.90
12811;DHT22;6470;47.654;7.896;2024-03-06T12:20:50;7.00;99.90
12811;DHT22;6470;47.654;7.896;2024-03-06T12:23:23;7.80;99.90
12811;DHT22;6470;47.654;7.896;2024-03-06T12:28:24;8.10;99.90
12811;DHT22;6470;47.654;7.896;2024-03-06T12:30:49;7.70;99.90
12811;DHT22;6470;47.654;7.896;2024-03-06T12:33:17;7.70;99.90
12811;DHT22;6470;47.654;7.896;2024-03-06T12:38:15;7.90;99.90
12811;DHT22;6470;47.654;7.896;2024-03-06T12:40:44;7.90;99.90
12811;DHT22;6470;47.654;7.896;2024-03-06T12:43:10;8.50;99.90
12811;DHT22;6470;47.654;7.896;2024-03-06T12:45:36;8.80;99.90
12811;DHT22;6470;47.654;7.896;2024-03-06T12:48:03;8.00;99.90
12811;DHT22;6470;47.654;7.896;2024-03-06T12:50:30;8.30;99.90
12811;DHT22;6470;47.654;7.896;2024-03-06T12:55:22;7.90;99.90
12811;DHT22;6470;47.654;7.896;2024-03-06T12:57:48;8.60;99.90
12811;DHT22;6470;47.654;7.896;2024-03-06T13:00:15;9.00;99.90
12811;DHT22;6470;47.654;7.896;2024-03-06T13:02:45;9.00;99.90
12811;DHT22;6470;47.654;7.896;2024-03-06T13:05:11;8.60;99.90
12811;DHT22;6470;47.654;7.896;2024-03-06T13:07:38;8.60;99.90
12811;DHT22;6470;47.654;7.896;2024-03-06T13:10:05;8.50;99.90
12811;DHT22;6470;47.654;7.896;2024-03-06T13:12:31;8.40;99.90
12811;DHT22;6470;47.654;7.896;2024-03-06T13:14:57;8.50;99.90
12811;DHT22;6470;47.654;7.896;2024-03-06T13:17:22;8.30;99.90
12811;DHT22;6470;47.654;7.896;2024-03-06T13:19:48;8.90;99.90
12811;DHT22;6470;47.654;7.896;2024-03-06T13:22:14;8.40;99.90
12811;DHT22;6470;47.654;7.896;2024-03-06T13:24:40;8.80;99.90
12811;DHT22;6470;47.654;7.896;2024-03-06T13:27:06;8.20;99.90
12811;DHT22;6470;47.654;7.896;2024-03-06T13:31:58;8.70;99.90
12811;DHT22;6470;47.654;7.896;2024-03-06T13:34:23;9.40;99.90
12811;DHT22;6470;47.654;7.896;2024-03-06T13:39:15;8.90;99.90
12811;DHT22;6470;47.654;7.896;2024-03-06T13:41:41;8.80;99.90
12811;DHT22;6470;47.654;7.896;2024-03-06T13:44:06;9.00;99.90
12811;DHT22;6470;47.654;7.896;2024-03-06T13:51:26;9.60;99.90
12811;DHT22;6470;47.654;7.896;2024-03-06T13:53:51;6.60;99.90
12811;DHT22;6470;47.654;7.896;2024-03-06T14:03:36;8.40;99.90
12811;DHT22;6470;47.654;7.896;2024-03-06T14:06:04;7.70;99.90
12811;DHT22;6470;47.654;7.896;2024-03-06T14:08:29;8.00;99.90
12811;DHT22;6470;47.654;7.896;2024-03-06T14:10:55;7.80;99.90
12811;DHT22;6470;47.654;7.896;2024-03-06T14:13:21;8.30;99.90
12811;DHT22;6470;47.654;7.896;2024-03-06T14:15:46;4.90;99.90
12811;DHT22;6470;47.654;7.896;2024-03-06T14:20:40;8.00;99.90
12811;DHT22;6470;47.654;7.896;2024-03-06T14:23:05;7.80;99.90
12811;DHT22;6470;47.654;7.896;2024-03-06T14:25:31;7.30;99.90
12811;DHT22;6470;47.654;7.896;2024-03-06T14:28:03;7.20;99.90
12811;DHT22;6470;47.654;7.896;2024-03-06T14:32:55;7.40;99.90
12811;DHT22;6470;47.654;7.896;2024-03-06T14:35:21;4.80;99.90
12811;DHT22;6470;47.654;7.896;2024-03-06T14:45:06;7.30;99.90
12811;DHT22;6470;47.654;7.896;2024-03-06T14:47:32;6.90;99.90
12811;DHT22;6470;47.654;7.896;2024-03-06T14:49:58;6.80;99.90
12811;DHT22;6470;47.654;7.896;2024-03-06T14:52:24;4.20;99.90
12811;DHT22;6470;47.654;7.896;2024-03-06T14:54:50;7.80;99.90
12811;DHT22;6470;47.654;7.896;2024-03-06T14:57:16;4.40;99.90
12811;DHT22;6470;47.654;7.896;2024-03-06T14:59:41;7.50;99.90
12811;DHT22;6470;47.654;7.896;2024-03-06T15:02:07;6.90;99.90
12811;DHT22;6470;47.654;7.896;2024-03-06T15:06:59;6.80;99.90
12811;DHT22;6470;47.654;7.896;2024-03-06T15:09:25;7.50;99.90
12811;DHT22;6470;47.654;7.896;2024-03-06T15:11:52;7.20;99.90
12811;DHT22;6470;47.654;7.896;2024-03-06T15:14:18;4.00;99.90
12811;DHT22;6470;47.654;7.896;2024-03-06T15:16:47;7.30;99.90
12811;DHT22;6470;47.654;7.896;2024-03-06T15:19:14;7.40;99.90
12811;DHT22;6470;47.654;7.896;2024-03-06T15:24:07;7.00;99.90
12811;DHT22;6470;47.654;7.896;2024-03-06T15:26:33;4.50;99.90
12811;DHT22;6470;47.654;7.896;2024-03-06T15:31:26;7.00;99.90
12811;DHT22;6470;47.654;7.896;2024-03-06T15:33:52;7.10;99.90
12811;DHT22;6470;47.654;7.896;2024-03-06T15:41:10;3.80;99.90
12811;DHT22;6470;47.654;7.896;2024-03-06T15:46:02;4.60;99.90
12811;DHT22;6470;47.654;7.896;2024-03-06T15:50:57;7.20;99.90
12811;DHT22;6470;47.654;7.896;2024-03-06T15:58:20;6.30;99.90
12811;DHT22;6470;47.654;7.896;2024-03-06T16:00:45;6.30;99.90
12811;DHT22;6470;47.654;7.896;2024-03-06T16:03:11;7.00;99.90
12811;DHT22;6470;47.654;7.896;2024-03-06T16:05:38;7.00;99.90
12811;DHT22;6470;47.654;7.896;2024-03-06T16:10:30;7.20;99.90
12811;DHT22;6470;47.654;7.896;2024-03-06T16:12:56;7.30;99.90
12811;DHT22;6470;47.654;7.896;2024-03-06T16:15:22;6.60;99.90
12811;DHT22;6470;47.654;7.896;2024-03-06T16:22:39;6.50;99.90
12811;DHT22;6470;47.654;7.896;2024-03-06T16:25:06;6.80;99.90
12811;DHT22;6470;47.654;7.896;2024-03-06T16:27:32;6.90;99.90
12811;DHT22;6470;47.654;7.896;2024-03-06T16:32:24;6.90;99.90
12811;DHT22;6470;47.654;7.896;2024-03-06T16:34:50;6.80;99.90
12811;DHT22;6470;47.654;7.896;2024-03-06T16:39:42;3.80;99.90
12811;DHT22;6470;47.654;7.896;2024-03-06T16:42:10;6.30;99.90
12811;DHT22;6470;47.654;7.896;2024-03-06T16:44:39;3.00;99.90
12811;DHT22;6470;47.654;7.896;2024-03-06T16:47:05;2.80;99.90
12811;DHT22;6470;47.654;7.896;2024-03-06T16:49:31;7.00;99.90
12811;DHT22;6470;47.654;7.896;2024-03-06T16:51:57;6.40;99.90
12811;DHT22;6470;47.654;7.896;2024-03-06T16:54:24;6.50;99.90
12811;DHT22;6470;47.654;7.896;2024-03-06T16:56:49;6.80;99.90
12811;DHT22;6470;47.654;7.896;2024-03-06T16:59:15;5.90;99.90
12811;DHT22;6470;47.654;7.896;2024-03-06T17:01:41;6.10;99.90
12811;DHT22;6470;47.654;7.896;2024-03-06T17:04:07;5.40;99.90
12811;DHT22;6470;47.654;7.896;2024-03-06T17:06:33;6.70;99.90
12811;DHT22;6470;47.654;7.896;2024-03-06T17:08:58;7.10;99.90
12811;DHT22;6470;47.654;7.896;2024-03-06T17:16:16;7.20;99.90
12811;DHT22;6470;47.654;7.896;2024-03-06T17:18:42;6.90;99.90
12811;DHT22;6470;47.654;7.896;2024-03-06T17:21:08;6.00;99.90
12811;DHT22;6470;47.654;7.896;2024-03-06T17:23:35;6.60;99.90
12811;DHT22;6470;47.654;7.896;2024-03-06T17:26:01;6.30;99.90
12811;DHT22;6470;47.654;7.896;2024-03-06T17:28:27;6.60;99.90
12811;DHT22;6470;47.654;7.896;2024-03-06T17:30:53;6.40;99.90
12811;DHT22;6470;47.654;7.896;2024-03-06T17:33:20;6.50;99.90
12811;DHT22;6470;47.654;7.896;2024-03-06T17:35:46;6.60;99.90
12811;DHT22;6470;47.654;7.896;2024-03-06T17:38:14;2.90;99.90
12811;DHT22;6470;47.654;7.896;2024-03-06T17:40:40;3.30;99.90
12811;DHT22;6470;47.654;7.896;2024-03-06T17:43:17;3.30;99.90
12811;DHT22;6470;47.654;7.896;2024-03-06T17:48:09;7.00;99.90
12811;DHT22;6470;47.654;7.896;2024-03-06T17:50:35;3.40;99.90
12811;DHT22;6470;47.654;7.896;2024-03-06T17:53:04;6.00;99.90
12811;DHT22;6470;47.654;7.896;2024-03-06T17:55:30;6.20;99.90
12811;DHT22;6470;47.654;7.896;2024-03-06T17:57:58;6.40;99.90
12811;DHT22;6470;47.654;7.896;2024-03-06T18:00:23;3.20;99.90
12811;DHT22;6470;47.654;7.896;2024-03-06T18:02:49;6.60;99.90
12811;DHT22;6470;47.654;7.896;2024-03-06T18:05:17;6.00;99.90
12811;DHT22;6470;47.654;7.896;2024-03-06T18:07:43;2.70;99.90
12811;DHT22;6470;47.654;7.896;2024-03-06T18:10:09;6.30;99.90
12811;DHT22;6470;47.654;7.896;2024-03-06T18:12:35;5.80;99.90
12811;DHT22;6470;47.654;7.896;2024-03-06T18:15:01;2.60;99.90
12811;DHT22;6470;47.654;7.896;2024-03-06T18:17:27;6.00;99.90
12811;DHT22;6470;47.654;7.896;2024-03-06T18:19:53;5.30;99.90
12811;DHT22;6470;47.654;7.896;2024-03-06T18:24:45;5.90;99.90
12811;DHT22;6470;47.654;7.896;2024-03-06T18:29:37;5.90;99.90
12811;DHT22;6470;47.654;7.896;2024-03-06T18:32:03;5.60;99.90
12811;DHT22;6470;47.654;7.896;2024-03-06T18:34:29;2.80;99.90
12811;DHT22;6470;47.654;7.896;2024-03-06T18:36:59;6.10;99.90
12811;DHT22;6470;47.654;7.896;2024-03-06T18:39:24;5.80;99.90
12811;DHT22;6470;47.654;7.896;2024-03-06T18:44:16;5.70;99.90
12811;DHT22;6470;47.654;7.896;2024-03-06T18:46:42;5.40;99.90
12811;DHT22;6470;47.654;7.896;2024-03-06T18:56:29;5.50;99.90
12811;DHT22;6470;47.654;7.896;2024-03-06T18:58:55;5.60;99.90
12811;DHT22;6470;47.654;7.896;2024-03-06T19:03:49;2.20;99.90
12811;DHT22;6470;47.654;7.896;2024-03-06T19:06:16;2.40;99.90
12811;DHT22;6470;47.654;7.896;2024-03-06T19:11:08;5.00;99.90
12811;DHT22;6470;47.654;7.896;2024-03-06T19:13:34;5.90;99.90
12811;DHT22;6470;47.654;7.896;2024-03-06T19:16:00;2.50;99.90
12811;DHT22;6470;47.654;7.896;2024-03-06T19:18:26;6.20;99.90
12811;DHT22;6470;47.654;7.896;2024-03-06T19:20:53;6.10;99.90
12811;DHT22;6470;47.654;7.896;2024-03-06T19:23:18;2.20;99.90
12811;DHT22;6470;47.654;7.896;2024-03-06T19:25:44;5.20;99.90
12811;DHT22;6470;47.654;7.896;2024-03-06T19:28:10;5.10;99.90
12811;DHT22;6470;47.654;7.896;2024-03-06T19:30:35;5.70;99.90
12811;DHT22;6470;47.654;7.896;2024-03-06T19:33:01;5.80;99.90
12811;DHT22;6470;47.654;7.896;2024-03-06T19:35:27;2.00;99.90
12811;DHT22;6470;47.654;7.896;2024-03-06T19:37:53;5.60;99.90
12811;DHT22;6470;47.654;7.896;2024-03-06T19:40:19;4.80;99.90
12811;DHT22;6470;47.654;7.896;2024-03-06T19:42:45;5.90;99.90
12811;DHT22;6470;47.654;7.896;2024-03-06T19:45:11;5.50;99.90
12811;DHT22;6470;47.654;7.896;2024-03-06T19:47:36;5.70;99.90